Here is the Quick Look data you requested

The Data originates at the National Weather Service, and is made available here by the UAlbany Department of Atmospheric and Environmental Sciences

Surface Observations

PAAQ 220453Z AUTO 00000KT 10SM FEW080 12/11 A2969 RMK AO2 RAE0357 SLP057 P0000
 T01220111 TSNO=
PABA 220452Z AUTO 06003KT 10SM CLR 06/06 A2987 RMK AO2 SLP100 T00610056 TSNO=
PABE 220453Z 27007KT 10SM FEW010 SCT017 OVC024 11/10 A2997 RMK AO2 RAB32E40
 SLP151 P0000 T01110100=
PABI 220453Z 34004KT 10SM FEW046 BKN080 BKN110 OVC150 16/09 A2977 RMK AO2
 SLP084 SHRA DSNT SE-SW T01560089=
PABL 220456Z AUTO 15008KT 10SM BKN024 BKN031 OVC045 12/08 A2980 RMK AO2 SLP092
 T01170083=
PABR 220453Z 10014KT 10SM FEW006 OVC022 05/03 A2982 RMK AO2 SLP098 T00500033=
PABT 220453Z 00000KT 10SM FEW035 SCT065 10/07 A2981 RMK SLP101 T01000067 VIA
 AUTODIAL=
PABV 220456Z AUTO 14003KT 10SM OVC006 13/11 A2971 RMK AO2 RAE51 SLP069 P0000
 T01280111 $=
PACD 220453Z AUTO 31017G22KT 10SM BKN021 OVC033 11/07 A3012 RMK AO2 SLP201
 T01060072 TSNO=
PACV 220453Z 35004KT 10SM SCT025 BKN040 OVC075 12/11 A2969 RMK AO2 RAE27 SLP053
 P0000 T01220111=
PADE 220453Z AUTO 15006KT 9SM BKN034 BKN048 OVC070 13/11 A2974 RMK AO2 SLP072
 T01280111 PWINO TSNO $=
PADK 220456Z AUTO 11013KT 10SM 11/06 A3003 RMK AO1=
PADL 220456Z 32005KT 10SM CLR 15/05 A2988 RMK AO2 SLP124 T01500050=
PADQ 220453Z 32008KT 10SM OVC044 14/09 A2966 RMK AO2 RAB0356E05 SLP043 P0000
 T01390089=
PADU 220456Z 32008KT 10SM BKN035 11/04 A3022 RMK AO2 SLP235 LAST EM T01060044=
PAED 220456Z AUTO 32005KT 10SM -RA FEW050 OVC065 13/13 A2969 RMK AO2
 RAE20DZB20E30RAB30 SLP050 P0001 T01280128=
PAEG 220453Z AUTO 00000KT 10SM OVC028 12/11 A2976 RMK AO2 SLP081 T01220111 TSNO=
PAEH 220455Z AUTO 32021KT 10SM OVC009 11/10 A3003 RMK AO2 SLP170 T01120095=
PAEI 220458Z 32004KT 10SM FEW050 BKN080 BKN200 15/12 A2974 RMK AO2A SHRAB01E32
 SLP075 P0000 T01460116 $=
PAEM 220456Z AUTO 24012G16KT 1 3/4SM -RA BR BKN005 OVC010 11/10 A2987 RMK AO2
 SLP174 P0001 T01060100=
PAEN 220453Z 32004KT 10SM OVC060 14/13 A2969 RMK AO2 SLP056 T01390128=
PAFA 220453Z 35004KT 10SM SCT060 BKN080 BKN100 14/11 A2974 RMK AO2 SLP076
 T01390106=
PAFB 220458Z 24004KT 10SM OVC090 15/11 A2975 RMK AO2A SLP077 T01460108=
PAFM 220456Z AUTO 00000KT 10SM FEW100 12/04 A2985 RMK AO2 SLP124 T01220044 PNO
 $=
PAGA 220456Z AUTO 10003KT 10SM CLR 14/06 A2984 RMK AO2 SLP106 T01390061 PNO $=
PAGK 220453Z AUTO 00000KT 10SM FEW120 12/09 A2973 RMK AO2 SLP074 T01220094 TSNO=
PAGM 220456Z AUTO 25011KT 8SM FEW007 10/08 A2983 RMK AO2 SLP106 T01000083=
PAGS 220456Z AUTO 15010KT 10SM BKN037 OVC047 17/13 A2980 RMK AO2 SLP091
 T01670128=
PAGY 220500Z AUTO 00000KT 1/2SM -RA FEW004 BKN016 OVC029 A2981 RMK AO2 P0000
 TSNO $=
PAHN 220454Z AUTO 08009G17KT 10SM OVC015 14/13 A2980 RMK AO2 RAE51 SLP094 P0002
 T01440133 TSNO=
PAHO 220453Z 00000KT 10SM SCT004 OVC011 12/12 A2969 RMK AO2 SLP054 T01220117=
PAHP 220456Z AUTO 27017KT 10SM OVC010 11/09 A2994 RMK AO2 CIG 007V012 SLP177
 T01110094=
PAHY 220456Z AUTO 14017KT 4SM RA BR BKN008 BKN015 OVC036 15/14 A2987 RMK AO2
 CIG 007V012 SLP113 T01500144 PNO $=
PAII 220456Z AUTO 31008KT 10SM CLR 14/09 A2988 RMK AO2 SLP120 T01390089=
PAIL 220453Z 35009KT 10SM CLR 17/07 A2974 RMK AO2 SLP071 T01670072=
PAIM 220455Z AUTO 31001KT 10SM CLR 12/05 A2982 RMK AO2 SLP100 T01190045=
PAIN 220456Z AUTO 00000KT 10SM -RA SCT020 OVC046 11/09 A2979 RMK AO2 SLP104
 P0002 T01060089=
PAJC 220456Z AUTO 25013G22KT 10SM BKN030 11/06 A2995 RMK AO2 PK WND 30031/0442
 SLP142 T01110056=
PAJN 220453Z 11013KT 7SM -RA FEW010 BKN034 OVC100 15/14 A2982 RMK AO2 SLP097
 P0000 T01500144=
PAKK 220456Z AUTO 16009KT 10SM OVC005 10/09 A2979 RMK AO2 RAE15 SLP101 P0000
 T01000094=
PAKN 220454Z 34010KT 10SM SCT065 16/07 A2981 RMK AO2 SLP093 T01610067 $=
PAKP 220456Z AUTO 00000KT 10SM BKN065 09/04 A2979 RMK AO2 SLPNO T00940039=
PAKT 220453Z 14013KT 3SM +RA BR FEW013 OVC017 15/14 A2995 RMK AO2 SLP143 P0029
 T01500144=
PAKV 220453Z AUTO 24007KT 10SM -RA CLR 13/05 A2986 RMK AO2 SLP113 P0000
 T01330050 TSNO=
PAKW 220453Z AUTO VRB03KT 5SM -RA BR BKN009 OVC027 14/13 A2985 RMK AO2 SLP109
 P0009 T01440133 TSNO=
PALH 220453Z 14003KT 10SM -RA OVC060 13/12 A2970 RMK AO2 SLP058 P0002 T01330122=
PALU 220455Z AUTO 22013KT 100V270 6SM BKN007 07/07 A2972 RMK AO2 SLP062
 T00730065=
PAMC 220453Z 33006KT 10SM CLR 17/03 A2983 RMK AO2 SLP103 T01670028=
PAMD 220451Z AUTO 09011KT 7SM BKN008 OVC015 13/12 A2963 RMK AO2 RAB0357E10 CIG
 004V012 SLP025 P0000 T01280122=
PAMH 220456Z AUTO 00000KT 10SM SCT047 BKN060 OVC075 12/09 A2980 RMK AO2 SLP113
 T01220094 PNO $=
PAMR 220453Z 00000KT 10SM -RA FEW006 BKN023 OVC070 13/13 A2969 RMK AO2 SLP055
 P0001 T01280128=
PAMY 220456Z AUTO 27013KT 7SM OVC009 11/10 A3000 RMK AO2 RAB05E22 SLP162
 T01110100 PNO $=
PANC 220453Z 00000KT 10SM -RA FEW006 BKN060 OVC150 13/13 A2969 RMK AO2 SLP055
 P0001 T01330128=
PANI 220456Z AUTO 26003KT 10SM SCT046 13/07 A2991 RMK AO2 SLP097 T01280072=
PANN 220453Z AUTO 00000KT 10SM CLR 15/09 A2975 RMK AO2 SLP079 T01500094 TSNO=
PANT 220453Z AUTO 15012G21KT 10SM -RA OVC004 15/14 A2995 RMK AO2 SLP142 P0008
 T01500139 TSNO=
PAOH 220456Z AUTO 09007KT 10SM BKN034 BKN045 OVC070 15/13 A2980 RMK AO2
 RAB10E21 SLP092 P0001 T01500128=
PAOM 220453Z 24009KT 2SM BR BKN005 OVC009 10/10 A2976 RMK RAB0359E09B19E29
 SLP077 P0001 T01000100 VIA AUTODIAL=
PAOR 220453Z AUTO 00000KT 10SM BKN100 OVC120 12/09 A2973 RMK AO2 SLP075
 T01170094 TSNO=
PAOT 220453Z 15008KT 9SM OVC014 11/09 A2976 RMK AO2 RAB24E34 SLP078 P0000
 T01060094 $=
PAPB 220453Z AUTO 27008KT 10SM OVC019 11/09 A3016 RMK AO2 SLPNO T01110094 TSNO=
PAPG 220456Z VRB03KT 10SM OVC018 16/14 A2989 RMK AO2 RAB01E21 SLP126 P0001
 T01560139=
PAPH 220456Z AUTO 29016G21KT 10SM OVC011 11/09 A2999 RMK AO2 SLP160 T01060089=
PAPO 220456Z AUTO 26009KT 10SM OVC006 07/06 A2974 RMK AO2 SLP072 T00670056=
PAQT 220453Z AUTO 05008KT 10SM -RA CLR 07/05 A2985 RMK AO2 RAB19 SLP110 P0000
 T00670050 TSNO=
PARC 220456Z AUTO 29003KT 10SM OVC065 12/06 A2979 RMK AO2 SLP118 T01170056=
PASC 220453Z 04006KT 10SM FEW007 07/06 A2984 RMK AO2 SLP105 T00670061=
PASD 220456Z AUTO 01018KT 10SM BKN030 OVC035 12/07 A3004 RMK AO2 PK WND
 36026/0407 SLP174 T01220072=
PASI 220453Z 20008KT 4SM -RA BR FEW005 BKN022 OVC032 14/14 A2980 RMK AO2 RAB07
 SLP091 P0000 T01440139=
PASK 220456Z AUTO 19003KT 10SM FEW028 OVC045 11/09 A2983 RMK AO2 RAE49 SLP097
 P0000 T01110094 $=
PASM 220456Z AUTO 25009KT 10SM BKN010 OVC014 11/09 A2993 RMK AO2 SLP153
 T01110094=
PASN 220453Z AUTO 25012KT 5SM BR SCT004 OVC010 10/10 A3013 RMK AO2 CIG 009V013
 SLP205 T01000100 TSNO=
PASO 220453Z AUTO 00000KT 5SM BR OVC065 12/10 A2969 RMK AO2 RAB39E53 SLP053
 P0000 T01170100 TSNO=
PASV 220455Z AUTO 35012KT 10SM CLR 13/04 A2980 RMK AO2 SLP093 T01310038=
PASX 220456Z AUTO 00000KT 10SM OVC055 13/12 A2969 RMK AO2 SLP062 T01330122 $=
PATA 220452Z 32007KT 10SM BKN065 17/07 A2979 RMK AO2 SLP088 T01670072=
PATC 220455Z AUTO 02019KT 10SM -SHRA OVC003 07/06 A2977 RMK AO2 SHRAB0455
 SLP084 P0000 T00650064=
PATG 220456Z AUTO 31011G16KT 10SM CLR 13/08 A2996 RMK AO2 SLP238 T01330083=
PATK 220453Z AUTO 00000KT 10SM OVC070 16/12 A2969 RMK AO2 SLP058 T01560122 TSNO=
PATL 220455Z AUTO VRB06KT 10SM CLR 14/03 A2987 RMK AO2 SLP116 T01380029=
PATO 220453Z AUTO VRB05KT 10SM FEW034 BKN042 OVC055 11/09 A2972 RMK AO2 RAE21
 SLP063 P0000 T01060094 TSNO=
PAUN 220456Z AUTO 22005KT 10SM BKN020 OVC024 11/09 A2986 RMK AO2 SLP117
 T01110094=
PAVD 220456Z 08005KT 10SM BKN095 OVC120 11/07 A2970 RMK AO1 0447Z WEA: NONE TWR
 WND 05007KT=
PAVL 220453Z AUTO 19004KT BKN004 OVC015 09/09 A2975 RMK AO2 RAE48 SLP073
 T00940094 TSNO PNO $=
PAWD 220453Z AUTO 00000KT 10SM OVC055 14/12 A2966 RMK AO2 SLP044 T01390122 TSNO=
PAWG 220456Z 06008KT 9SM -RA FEW007 BKN024 OVC050 15/14 A2991 RMK (MCQ)=
PAYA 220453Z AUTO 08005KT 2 1/2SM -RA BR OVC017 13/13 A2972 RMK AO2 SLP064
 P0005 T01330128 TSNO=
PAZK 220456Z AUTO 00000KT 10SM BKN013 BKN048 OVC060 07/07 A2974 RMK AO2 RAE20
 SLP098 P0000 T00720067=